Time;durP1;ratioP1;P1;durP2;ratioP2;P2;SDS_P1;SDS_P2;PMS_P1;PMS_P2;Temp;Humidity;BMP_temperature;BMP_pressure;BME280_temperature;BME280_humidity;BME280_pressure;Samples;Min_cycle;Max_cycle;Signal;HPM_P1;HPM_P2
2022/12/26 00:01:05;;;;;;;;;5.00;3.25;;;;;14.19;100.00;101207.50;5110883;27;50013;-74
2022/12/26 00:03:30;;;;;;;;;4.00;4.00;;;;;13.07;100.00;101034.41;5105025;27;49416;-75
2022/12/26 00:05:55;;;;;;;;;4.00;2.00;;;;;12.84;100.00;101004.22;5112189;27;50040;-73
2022/12/26 00:08:21;;;;;;;;;1.75;1.00;;;;;14.16;100.00;101221.53;5109433;27;52365;-78
2022/12/26 07:55:46;;;;;;;;;3.00;0.25;;;;;11.50;100.00;101359.28;5454833;23;49774;-79
2022/12/26 07:58:11;;;;;;;;;0.00;0.00;;;;;12.48;100.00;101542.56;4915896;28;49845;-79
2022/12/26 08:00:36;;;;;;;;;0.75;0.75;;;;;11.69;100.00;101440.47;4914151;28;49659;-80
2022/12/26 08:03:05;;;;;;;;;2.00;2.00;;;;;11.91;100.00;101456.00;4915019;28;49864;-80
2022/12/26 08:05:30;;;;;;;;;0.25;0.00;;;;;10.74;100.00;101258.25;4914035;28;49729;-79
2022/12/26 08:07:55;;;;;;;;;1.00;1.00;;;;;11.08;100.00;101328.34;4915158;28;49799;-79
2022/12/26 08:10:21;;;;;;;;;1.00;0.00;;;;;12.07;100.00;101466.94;4914015;28;50092;-80
2022/12/26 08:12:46;;;;;;;;;1.00;0.00;;;;;12.65;100.00;101563.19;4915064;28;50215;-80
2022/12/26 08:15:12;;;;;;;;;2.75;1.75;;;;;11.89;100.00;101439.28;4913403;28;49837;-79
2022/12/26 08:17:37;;;;;;;;;1.75;1.75;;;;;11.98;100.00;101433.38;4915394;28;50004;-79
2022/12/26 08:20:06;;;;;;;;;4.00;2.50;;;;;12.57;100.00;101532.28;4908759;28;49768;-80
2022/12/26 08:22:32;;;;;;;;;2.00;2.00;;;;;11.20;100.00;101270.91;4915405;28;50480;-80
2022/12/26 08:24:57;;;;;;;;;1.00;1.00;;;;;12.71;100.00;101561.56;4914870;28;49699;-80
2022/12/26 08:27:22;;;;;;;;;3.25;1.25;;;;;12.19;100.00;101440.91;4915052;28;49765;-79
2022/12/26 08:29:48;;;;;;;;;1.00;1.00;;;;;12.43;100.00;101485.38;4915029;28;49816;-80
2022/12/26 08:32:13;;;;;;;;;4.75;4.75;;;;;12.85;100.00;101557.56;4914809;28;50850;-78
2022/12/26 08:34:38;;;;;;;;;0.75;0.75;;;;;11.99;100.00;101445.66;4915316;28;49773;-78
2022/12/26 08:37:10;;;;;;;;;3.50;2.50;;;;;12.69;100.00;101529.03;4915326;28;49817;-78
2022/12/26 08:39:38;;;;;;;;;3.00;1.00;;;;;11.21;100.00;101284.91;4915018;28;49983;-78
2022/12/26 08:42:04;;;;;;;;;2.00;2.00;;;;;13.00;100.00;101591.28;4915004;28;49893;-80
2022/12/26 08:44:29;;;;;;;;;1.75;0.75;;;;;12.76;100.00;101545.91;4914917;28;49817;-79
2022/12/26 08:46:54;;;;;;;;;1.50;0.00;;;;;11.82;100.00;101404.88;4914977;28;49997;-79
2022/12/26 08:49:20;;;;;;;;;1.25;1.25;;;;;12.59;100.00;101516.50;4915139;28;49814;-79
2022/12/26 08:51:48;;;;;;;;;0.00;0.00;;;;;12.00;100.00;101418.50;4914145;28;50823;-79
2022/12/26 08:54:13;;;;;;;;;2.00;2.00;;;;;11.81;100.00;101385.56;4911826;28;49842;-82
2022/12/26 08:56:39;;;;;;;;;2.75;2.75;;;;;12.57;100.00;101526.13;4915436;28;49952;-76
2022/12/26 08:59:04;;;;;;;;;2.50;1.75;;;;;11.81;100.00;101390.81;4920291;28;49593;-76
2022/12/26 09:01:30;;;;;;;;;2.25;2.25;;;;;12.85;100.00;101554.91;4919351;28;56055;-78
2022/12/26 09:04:00;;;;;;;;;0.00;0.00;;;;;13.10;100.00;101605.56;4921842;28;49885;-71
2022/12/26 09:06:27;;;;;;;;;2.50;2.50;;;;;13.01;100.00;101608.88;4914068;28;49653;-72
2022/12/26 09:08:53;;;;;;;;;4.00;3.00;;;;;12.78;100.00;101568.78;4914057;28;49677;-73
2022/12/26 09:11:26;;;;;;;;;2.25;2.25;;;;;13.09;100.00;101615.22;4913848;28;50635;-71
2022/12/26 09:13:52;;;;;;;;;1.00;1.00;;;;;11.84;100.00;101393.53;4912758;28;50148;-72
2022/12/26 09:16:23;;;;;;;;;1.00;1.00;;;;;12.71;100.00;101535.22;4912605;28;49777;-72
2022/12/26 09:18:53;;;;;;;;;1.25;1.25;;;;;13.29;100.00;101635.94;4914512;28;49962;-72
2022/12/26 09:21:19;;;;;;;;;2.00;2.00;;;;;13.22;100.00;101618.19;4914215;28;50086;-73
2022/12/26 09:23:44;;;;;;;;;3.00;2.00;;;;;13.34;100.00;101645.75;4912390;28;49912;-72
2022/12/26 09:26:28;;;;;;;;;3.75;1.75;;;;;13.03;100.00;101596.66;4914278;28;50195;-72
2022/12/26 09:28:53;;;;;;;;;2.50;1.50;;;;;12.88;100.00;101569.91;4912790;28;49985;-72
2022/12/26 09:31:23;;;;;;;;;2.75;1.00;;;;;13.17;100.00;101616.31;4913969;28;50520;-73
2022/12/26 09:33:49;;;;;;;;;3.25;3.00;;;;;13.14;100.00;101596.91;4913988;28;49669;-73
2022/12/26 09:36:20;;;;;;;;;3.25;2.00;;;;;13.45;100.00;101643.34;4916535;28;49860;-72
2022/12/26 09:38:46;;;;;;;;;1.75;1.50;;;;;13.27;100.00;101622.72;4913773;28;49657;-72
2022/12/26 09:41:50;;;;;;;;;4.50;2.00;;;;;13.53;100.00;101651.44;4913707;28;50247;-73
2022/12/26 09:44:29;;;;;;;;;2.00;1.00;;;;;13.55;100.00;101650.63;4913754;28;49721;-73
2022/12/26 09:47:13;;;;;;;;;2.00;1.00;;;;;13.58;100.00;101658.59;4913766;28;49624;-72
2022/12/26 09:49:57;;;;;;;;;1.00;1.00;;;;;13.42;100.00;101628.38;4913758;28;49840;-72
2022/12/26 09:52:44;;;;;;;;;1.50;1.50;;;;;13.60;100.00;101659.50;4913323;28;50678;-78
2022/12/26 09:55:36;;;;;;;;;1.00;1.00;;;;;13.54;100.00;101646.22;4911744;28;49996;-78
2022/12/26 09:58:21;;;;;;;;;2.25;1.00;;;;;13.52;100.00;101645.28;4918571;28;49834;-80
2022/12/26 10:01:00;;;;;;;;;2.75;1.75;;;;;13.45;100.00;101627.53;4913695;28;49865;-81
2022/12/26 10:03:26;;;;;;;;;2.25;2.00;;;;;13.68;100.00;101696.63;4912287;28;52231;-80
2022/12/26 10:06:19;;;;;;;;;3.00;2.75;;;;;13.35;100.00;101615.88;4913513;28;49823;-85
2022/12/26 10:09:10;;;;;;;;;1.25;1.25;;;;;13.74;100.00;101676.56;4908675;28;49985;-71
2022/12/26 10:11:59;;;;;;;;;2.75;2.75;;;;;13.83;100.00;101683.81;4913311;28;50276;-72
2022/12/26 10:14:40;;;;;;;;;3.50;1.00;;;;;13.86;100.00;101689.13;4912759;28;49995;-70
2022/12/26 10:17:13;;;;;;;;;0.25;0.25;;;;;13.86;100.00;101685.59;4913452;28;49774;-81
2022/12/26 10:20:17;;;;;;;;;2.00;2.00;;;;;13.91;100.00;101691.91;4912089;28;49957;-75
2022/12/26 10:22:53;;;;;;;;;2.25;1.00;;;;;13.94;100.00;101703.41;4913418;28;50119;-75
2022/12/26 10:25:37;;;;;;;;;1.25;1.25;;;;;13.96;100.00;101671.75;4912896;28;49701;-74
2022/12/26 10:28:14;;;;;;;;;1.00;1.00;;;;;13.80;100.00;101633.59;4913201;28;49900;-73
2022/12/26 10:30:41;;;;;;;;;1.25;1.25;;;;;14.00;100.00;101661.31;4912121;28;49867;-73
2022/12/26 10:33:17;;;;;;;;;1.00;1.00;;;;;14.10;100.00;101674.69;4917568;28;49814;-73
2022/12/26 10:35:45;;;;;;;;;1.00;1.00;;;;;13.85;100.00;101620.47;4914019;28;49664;-76
2022/12/26 10:38:31;;;;;;;;;0.50;0.50;;;;;14.10;100.00;101669.41;4911566;28;49892;-76
2022/12/26 10:41:02;;;;;;;;;0.75;0.75;;;;;14.14;100.00;101676.53;4911613;28;50164;-79
2022/12/26 10:43:33;;;;;;;;;1.25;1.00;;;;;14.17;100.00;101673.94;4913337;28;49767;-73
2022/12/26 10:46:12;;;;;;;;;2.50;1.00;;;;;14.07;100.00;101662.31;4912996;28;50556;-79
2022/12/26 10:48:38;;;;;;;;;1.00;1.00;;;;;14.12;100.00;101671.22;4913357;28;49593;-73
2022/12/26 10:51:03;;;;;;;;;1.00;0.00;;;;;13.99;100.00;101651.59;4912973;28;49731;-73
2022/12/26 10:53:29;;;;;;;;;1.00;1.00;;;;;14.19;100.00;101677.53;4911759;28;49841;-69
2022/12/26 10:55:56;;;;;;;;;0.00;0.00;;;;;14.10;100.00;101658.84;4912594;28;51041;-68
2022/12/26 10:58:33;;;;;;;;;1.00;1.00;;;;;14.17;100.00;101669.56;4912914;28;49774;-69
2022/12/26 11:01:27;;;;;;;;;2.00;2.00;;;;;14.26;100.00;101675.03;4912700;28;49866;-69
2022/12/26 11:03:55;;;;;;;;;0.50;0.50;;;;;14.26;100.00;101669.75;4913320;28;49821;-69
2022/12/26 11:06:24;;;;;;;;;1.00;1.00;;;;;14.21;100.00;101674.06;4915620;28;50524;-70
2022/12/26 11:08:50;;;;;;;;;0.00;0.00;;;;;14.35;100.00;101682.25;4915555;28;49597;-69
2022/12/26 11:11:51;;;;;;;;;1.25;1.25;;;;;14.17;100.00;101643.16;4912835;28;49978;-70
2022/12/26 11:14:28;;;;;;;;;2.75;1.00;;;;;14.35;100.00;101658.47;4912656;28;50031;-70
2022/12/26 11:16:57;;;;;;;;;3.75;2.25;;;;;14.44;100.00;101669.22;4918999;28;49957;-70
2022/12/26 11:19:35;;;;;;;;;1.00;0.00;;;;;14.50;100.00;101673.78;4912589;28;49900;-71
2022/12/26 11:22:32;;;;;;;;;3.50;1.00;;;;;14.62;100.00;101667.81;4912743;28;49845;-76
2022/12/26 11:25:33;;;;;;;;;0.00;0.00;;;;;14.64;100.00;101671.38;4882457;28;49698;-72
2022/12/26 11:28:19;;;;;;;;;0.50;0.50;;;;;14.61;100.00;101661.66;4914452;28;52350;-72
2022/12/26 11:30:46;;;;;;;;;0.75;0.75;;;;;14.78;100.00;101664.63;4909698;28;49739;-76
2022/12/26 11:33:22;;;;;;;;;1.00;1.00;;;;;14.84;100.00;101681.44;4914545;28;49987;-72
2022/12/26 11:36:06;;;;;;;;;1.00;1.00;;;;;14.71;100.00;101654.78;4913787;28;50161;-73
2022/12/26 11:38:46;;;;;;;;;0.25;0.25;;;;;14.75;100.00;101664.53;4915364;28;50220;-78
2022/12/26 11:41:32;;;;;;;;;0.00;0.00;;;;;14.78;100.00;101683.13;4915574;28;49802;-70
2022/12/26 11:44:09;;;;;;;;;2.00;0.00;;;;;14.64;100.00;101743.63;4915680;28;49653;-69
2022/12/26 11:46:55;;;;;;;;;1.00;1.00;;;;;14.37;100.00;101735.09;4915747;28;50039;-70
2022/12/26 11:49:27;;;;;;;;;1.00;0.00;;;;;14.10;100.00;101738.97;4915472;28;49721;-69
2022/12/26 11:51:53;;;;;;;;;0.00;0.00;;;;;13.70;100.00;101718.66;4915194;28;49768;-69
2022/12/26 11:54:22;;;;;;;;;0.00;0.00;;;;;13.76;100.00;101766.31;4914785;28;49941;-68
2022/12/26 11:56:58;;;;;;;;;0.00;0.00;;;;;12.90;100.00;101795.72;4915489;28;49727;-68
2022/12/26 11:59:23;;;;;;;;;1.00;1.00;;;;;12.37;100.00;101775.75;4914468;28;51347;-70
2022/12/26 12:02:13;;;;;;;;;2.00;0.00;;;;;12.36;100.00;101821.38;4913510;28;49950;-69
2022/12/26 12:04:39;;;;;;;;;2.00;2.00;;;;;11.92;100.00;101791.03;4913187;28;49881;-70
2022/12/26 12:07:21;;;;;;;;;2.00;1.75;;;;;12.13;100.00;101827.66;4910501;28;49820;-72
2022/12/26 12:10:09;;;;;;;;;3.00;2.00;;;;;11.99;100.00;101825.50;4913560;28;49859;-70
2022/12/26 12:13:07;;;;;;;;;2.00;1.00;;;;;11.80;100.00;101801.19;4928217;28;49859;-69
2022/12/26 12:15:49;;;;;;;;;5.00;2.00;;;;;11.67;100.00;101789.31;4906849;28;49809;-70
2022/12/26 12:18:30;;;;;;;;;2.00;2.00;;;;;11.91;100.00;101833.97;4914503;28;49877;-69
2022/12/26 12:21:24;;;;;;;;;1.00;1.00;;;;;11.84;100.00;101824.09;4909107;28;50434;-70
2022/12/26 12:24:03;;;;;;;;;2.75;1.00;;;;;11.84;100.00;101835.50;4913220;28;49872;-71
2022/12/26 12:26:56;;;;;;;;;3.00;1.50;;;;;11.71;100.00;101842.09;4914552;28;49714;-71
2022/12/26 12:29:36;;;;;;;;;2.00;2.00;;;;;11.57;100.00;101845.97;4910185;28;49933;-70
2022/12/26 12:32:17;;;;;;;;;2.75;2.00;;;;;11.39;100.00;101853.25;4911836;28;49703;-68
2022/12/26 12:35:07;;;;;;;;;2.00;2.00;;;;;11.25;100.00;101860.63;4913140;28;50312;-68
2022/12/26 12:37:38;;;;;;;;;1.25;1.00;;;;;11.31;100.00;101857.34;4914202;28;49701;-67
2022/12/26 12:40:30;;;;;;;;;1.00;1.00;;;;;11.35;100.00;101849.59;4914326;28;50203;-69
2022/12/26 12:43:02;;;;;;;;;1.25;1.25;;;;;11.45;100.00;101849.09;4914445;28;50614;-70
2022/12/26 12:45:45;;;;;;;;;1.50;1.50;;;;;11.54;100.00;101851.13;4913325;28;49894;-70
2022/12/26 12:48:38;;;;;;;;;2.00;2.00;;;;;11.61;100.00;101844.34;4914582;28;49816;-70
2022/12/26 12:51:22;;;;;;;;;1.00;1.00;;;;;11.62;100.00;101839.16;4913532;28;49926;-70
2022/12/26 12:54:24;;;;;;;;;4.00;3.00;;;;;11.72;100.00;101829.81;4914124;28;51229;-69
2022/12/26 12:57:23;;;;;;;;;1.00;1.00;;;;;11.88;100.00;101841.78;4914338;28;49961;-70
2022/12/26 13:00:20;;;;;;;;;2.75;1.00;;;;;11.86;100.00;101832.94;4912115;28;50409;-73
2022/12/26 13:03:04;;;;;;;;;0.50;0.50;;;;;11.82;100.00;101826.69;4919340;28;51394;-69
2022/12/26 13:05:44;;;;;;;;;2.50;2.00;;;;;11.78;100.00;101830.03;4915825;28;50242;-77
2022/12/26 13:08:13;;;;;;;;;2.75;2.00;;;;;11.79;100.00;101833.56;4913026;28;49680;-81
2022/12/26 13:10:48;;;;;;;;;2.00;2.00;;;;;11.79;100.00;101844.09;4913619;28;49821;-80
2022/12/26 13:13:26;;;;;;;;;2.75;1.00;;;;;11.49;100.00;101788.72;4914257;28;49683;-83
2022/12/26 13:15:57;;;;;;;;;1.25;1.25;;;;;11.71;100.00;101820.16;4913893;28;49811;-74
2022/12/26 13:18:29;;;;;;;;;4.00;2.00;;;;;11.80;100.00;101831.00;4914066;28;49697;-74
2022/12/26 13:21:07;;;;;;;;;3.75;2.25;;;;;11.80;100.00;101828.38;4913962;28;49807;-72
2022/12/26 13:26:43;;;;;;;;;2.00;2.00;;;;;11.72;100.00;101801.78;4913947;28;49613;-73
2022/12/26 13:29:12;;;;;;;;;1.50;1.50;;;;;11.99;100.00;101846.56;4914632;28;49886;-78
2022/12/26 13:31:39;;;;;;;;;2.50;1.00;;;;;11.42;100.00;101738.56;4906616;28;49855;-74
2022/12/26 13:34:09;;;;;;;;;1.00;1.00;;;;;11.81;100.00;101814.38;4912530;28;50118;-74
2022/12/26 13:36:34;;;;;;;;;4.00;2.00;;;;;12.05;100.00;101845.84;4905776;28;51038;-80
2022/12/26 13:39:02;;;;;;;;;4.00;4.00;;;;;12.10;100.00;101841.63;4913626;28;49764;-76
2022/12/26 13:44:16;;;;;;;;;3.75;2.25;;;;;12.16;100.00;101844.47;4909701;28;49756;-73
2022/12/26 13:46:43;;;;;;;;;0.75;0.75;;;;;12.18;100.00;101850.66;4913431;28;50022;-77
2022/12/26 13:49:27;;;;;;;;;2.00;2.00;;;;;12.15;100.00;101849.66;4913510;28;49841;-72
2022/12/26 13:52:18;;;;;;;;;1.00;1.00;;;;;10.98;100.00;101645.09;4913598;28;50003;-73
2022/12/26 13:54:46;;;;;;;;;1.25;1.00;;;;;12.20;100.00;101864.75;4905393;28;50799;-70
2022/12/26 13:57:41;;;;;;;;;1.75;1.00;;;;;11.69;100.00;101785.00;4913517;28;50362;-77
2022/12/26 14:00:09;;;;;;;;;0.25;0.25;;;;;12.25;100.00;101875.41;4913286;28;49955;-74
2022/12/26 14:03:00;;;;;;;;;2.00;1.50;;;;;12.28;100.00;101880.81;4913514;28;49803;-69
2022/12/26 14:05:41;;;;;;;;;1.00;1.00;;;;;12.26;100.00;101877.25;4913675;28;49792;-69
2022/12/26 14:08:35;;;;;;;;;3.75;2.50;;;;;12.20;100.00;101880.56;4914163;28;49847;-67
2022/12/26 14:11:09;;;;;;;;;2.75;0.00;;;;;12.24;100.00;101887.69;4883102;28;50028;-68
2022/12/26 14:13:43;;;;;;;;;2.00;1.25;;;;;12.17;100.00;101892.75;4911169;28;49925;-65
2022/12/26 14:16:27;;;;;;;;;1.00;1.00;;;;;12.12;100.00;101883.78;4912407;28;49903;-68
2022/12/26 14:19:13;;;;;;;;;0.00;0.00;;;;;12.01;100.00;101886.06;4911919;28;50542;-69
2022/12/26 14:21:51;;;;;;;;;4.50;1.50;;;;;11.98;100.00;101892.13;4912802;28;49723;-68
2022/12/26 14:24:42;;;;;;;;;1.00;1.00;;;;;11.96;100.00;101896.44;4912910;28;49799;-67
2022/12/26 14:27:30;;;;;;;;;1.00;0.00;;;;;11.79;100.00;101892.31;4913273;28;49910;-66
2022/12/26 14:30:16;;;;;;;;;1.00;1.00;;;;;11.72;100.00;101893.84;4912996;28;50988;-68
2022/12/26 14:33:01;;;;;;;;;2.00;1.00;;;;;11.89;100.00;101922.50;4909363;28;49785;-68
2022/12/26 14:36:00;;;;;;;;;1.50;1.50;;;;;11.81;100.00;101929.25;4913445;28;50072;-67
2022/12/26 14:39:02;;;;;;;;;1.25;1.00;;;;;11.77;100.00;101922.94;4913239;28;49908;-67
2022/12/26 14:44:31;;;;;;;;;1.00;0.75;;;;;11.67;100.00;101939.22;4912901;28;49915;-67
2022/12/26 14:47:00;;;;;;;;;1.00;1.00;;;;;11.59;100.00;101946.00;4911993;28;49735;-67
2022/12/26 14:49:31;;;;;;;;;1.75;1.00;;;;;11.62;100.00;101946.09;4911693;28;49799;-67
2022/12/26 14:52:36;;;;;;;;;1.00;1.00;;;;;11.55;100.00;101936.19;4912108;28;49754;-74
2022/12/26 14:56:00;;;;;;;;;3.25;2.00;;;;;11.57;100.00;101950.28;4910680;28;49810;-67
2022/12/26 14:58:48;;;;;;;;;1.00;1.00;;;;;11.52;100.00;101951.84;4855701;29;49945;-70
2022/12/26 15:01:19;;;;;;;;;1.50;1.00;;;;;11.49;100.00;101957.03;4856524;29;50072;-73
2022/12/26 15:03:50;;;;;;;;;3.00;3.00;;;;;11.31;100.00;101945.00;4894282;28;50134;-70
2022/12/26 15:06:18;;;;;;;;;0.50;0.50;;;;;11.34;100.00;101976.63;4915747;28;49771;-68
2022/12/26 15:09:21;;;;;;;;;1.25;1.00;;;;;11.27;100.00;101982.50;4914372;28;49636;-68
2022/12/26 15:12:18;;;;;;;;;1.50;0.25;;;;;11.17;100.00;101983.00;4914861;28;50283;-69
2022/12/26 15:15:05;;;;;;;;;1.00;0.00;;;;;11.10;100.00;101989.78;4913839;28;50415;-69
2022/12/26 15:17:42;;;;;;;;;0.50;0.00;;;;;10.66;100.00;101953.88;4915659;28;49715;-67
2022/12/26 15:20:35;;;;;;;;;0.50;0.00;;;;;10.92;100.00;101982.91;4915501;28;49943;-71
2022/12/26 15:23:20;;;;;;;;;1.00;1.00;;;;;10.93;100.00;102001.34;4914101;28;49907;-68
2022/12/26 15:26:23;;;;;;;;;1.25;1.00;;;;;10.93;100.00;102021.47;4915676;28;50385;-68
2022/12/26 15:29:26;;;;;;;;;5.00;0.75;;;;;10.82;100.00;102026.31;4912930;28;49951;-67
2022/12/26 15:32:11;;;;;;;;;1.25;1.00;;;;;10.51;100.00;101998.78;4914278;28;49941;-68
2022/12/26 15:34:58;;;;;;;;;2.00;1.00;;;;;10.45;100.00;102003.81;4914184;28;50014;-68
2022/12/26 15:37:42;;;;;;;;;2.00;0.00;;;;;10.72;100.00;102051.31;4915123;28;51055;-72
2022/12/26 15:40:13;;;;;;;;;2.00;2.00;;;;;10.71;100.00;102052.16;4911796;28;49767;-67
2022/12/26 15:42:51;;;;;;;;;2.00;1.00;;;;;10.67;100.00;102054.56;4915247;28;49843;-67
2022/12/26 15:45:22;;;;;;;;;2.25;1.75;;;;;10.63;100.00;102061.44;4915439;28;49764;-67
2022/12/26 15:48:00;;;;;;;;;1.25;1.00;;;;;10.51;100.00;102053.94;4914360;28;50640;-69
2022/12/26 15:50:55;;;;;;;;;1.00;1.00;;;;;10.55;100.00;102075.97;4915139;28;49925;-70
2022/12/26 15:53:41;;;;;;;;;2.00;2.00;;;;;10.46;100.00;102072.97;4920583;28;49869;-71
2022/12/26 15:56:16;;;;;;;;;1.00;1.00;;;;;10.40;100.00;102075.31;4914341;28;49902;-83
2022/12/26 15:59:14;;;;;;;;;2.75;1.25;;;;;9.96;100.00;102025.34;4915184;28;50954;-69
2022/12/26 16:01:42;;;;;;;;;3.00;2.50;;;;;10.28;100.00;102070.47;4912813;28;49894;-68
2022/12/26 16:04:28;;;;;;;;;2.00;2.00;;;;;10.27;100.00;102072.19;4914167;28;49787;-67
2022/12/26 16:07:07;;;;;;;;;1.00;1.00;;;;;10.28;100.00;102094.06;4915648;28;50085;-69
2022/12/26 16:09:51;;;;;;;;;2.00;2.00;;;;;9.88;100.00;102033.69;4909857;28;49970;-67
2022/12/26 16:12:28;;;;;;;;;1.75;1.75;;;;;10.27;100.00;102095.81;4913428;28;49705;-69
2022/12/26 16:14:59;;;;;;;;;10.25;2.75;;;;;10.19;100.00;102093.66;4915065;28;49920;-68
2022/12/26 16:17:26;;;;;;;;;3.25;1.25;;;;;10.09;100.00;102087.09;4914688;28;49960;-67
2022/12/26 16:19:53;;;;;;;;;2.25;2.25;;;;;10.00;100.00;102074.47;4913303;28;52767;-67
2022/12/26 16:22:42;;;;;;;;;2.75;2.75;;;;;10.08;100.00;102106.31;4914981;28;49756;-67
2022/12/26 16:25:11;;;;;;;;;2.00;2.00;;;;;10.00;100.00;102098.09;4915092;28;49719;-69
2022/12/26 16:27:37;;;;;;;;;5.00;3.00;;;;;9.58;100.00;102031.50;4915247;28;49724;-68
2022/12/26 16:30:14;;;;;;;;;6.00;1.75;;;;;9.35;100.00;101998.09;4914656;28;49823;-69
2022/12/26 16:32:42;;;;;;;;;2.50;1.25;;;;;9.69;100.00;102081.81;4914578;28;49885;-72
2022/12/26 16:35:18;;;;;;;;;2.25;2.25;;;;;9.94;100.00;102121.44;4914688;28;49942;-68
2022/12/26 16:37:44;;;;;;;;;3.25;2.75;;;;;9.83;100.00;102111.25;4914434;28;49739;-72
2022/12/26 16:40:23;;;;;;;;;5.25;4.00;;;;;9.98;100.00;102138.19;4914208;28;50647;-70
2022/12/26 16:43:16;;;;;;;;;1.75;1.75;;;;;9.92;100.00;102138.81;4914716;28;49712;-68
2022/12/26 16:45:44;;;;;;;;;4.25;4.25;;;;;9.83;100.00;102138.38;4917414;28;49787;-66
2022/12/26 16:48:14;;;;;;;;;4.25;4.25;;;;;9.77;100.00;102137.22;4914251;28;49601;-70
2022/12/26 16:50:57;;;;;;;;;3.50;2.25;;;;;9.47;100.00;102100.91;4917462;28;49845;-70
2022/12/26 16:53:40;;;;;;;;;2.75;2.75;;;;;9.81;100.00;102168.00;4914896;28;49763;-70
2022/12/26 16:56:26;;;;;;;;;1.75;1.75;;;;;9.78;100.00;102175.75;4914223;28;49915;-70
2022/12/26 16:59:06;;;;;;;;;2.00;1.00;;;;;9.57;100.00;102142.44;4917349;28;49737;-70
2022/12/26 17:01:33;;;;;;;;;4.25;3.00;;;;;9.39;100.00;102132.00;4919127;28;50432;-68
2022/12/26 17:04:03;;;;;;;;;2.50;2.50;;;;;9.33;100.00;102130.78;4916762;28;49808;-71
2022/12/26 17:06:33;;;;;;;;;5.00;4.00;;;;;9.57;100.00;102186.13;4914682;28;50078;-69
2022/12/26 17:09:07;;;;;;;;;4.00;4.00;;;;;9.58;100.00;102201.94;4919232;28;49929;-70
2022/12/26 17:11:35;;;;;;;;;7.00;3.00;;;;;8.88;100.00;102086.75;4920518;28;50023;-70
2022/12/26 17:14:05;;;;;;;;;2.50;2.50;;;;;8.92;100.00;102108.75;4918252;28;49744;-70
2022/12/26 17:16:31;;;;;;;;;4.00;3.00;;;;;9.40;100.00;102195.78;4915379;28;49885;-70
2022/12/26 17:19:18;;;;;;;;;3.75;3.75;;;;;8.81;100.00;102100.38;4917482;28;49686;-70
2022/12/26 17:22:25;;;;;;;;;4.50;3.25;;;;;9.17;100.00;102179.88;4908059;28;50786;-70
2022/12/26 17:25:11;;;;;;;;;4.00;4.00;;;;;8.92;100.00;102148.03;4917187;28;50096;-70
2022/12/26 17:27:36;;;;;;;;;2.00;2.00;;;;;8.79;100.00;102143.91;4913394;28;49684;-70
2022/12/26 17:30:29;;;;;;;;;3.00;3.00;;;;;9.29;100.00;102237.22;4913677;28;49688;-74
2022/12/26 17:33:01;;;;;;;;;3.00;2.75;;;;;9.17;100.00;102218.28;4925717;28;50484;-69
2022/12/26 17:35:30;;;;;;;;;4.25;4.00;;;;;9.04;100.00;102208.88;4927434;28;49926;-69
2022/12/26 17:38:00;;;;;;;;;8.50;6.50;;;;;9.20;100.00;102249.84;4911407;28;49944;-71
2022/12/26 17:40:31;;;;;;;;;2.00;2.00;;;;;9.14;100.00;102237.34;4913977;28;49992;-70
2022/12/26 17:43:18;;;;;;;;;6.75;2.25;;;;;9.18;100.00;102255.03;4911703;28;53021;-68
2022/12/26 17:45:43;;;;;;;;;2.75;2.75;;;;;8.94;100.00;102222.34;4908171;28;49843;-68
2022/12/26 17:48:10;;;;;;;;;2.75;2.75;;;;;9.01;100.00;102241.88;4913522;28;49902;-72
2022/12/26 17:50:39;;;;;;;;;2.25;2.25;;;;;8.89;100.00;102221.22;4913799;28;49820;-67
2022/12/26 17:53:29;;;;;;;;;6.00;4.00;;;;;9.07;100.00;102264.06;4913088;28;49968;-68
2022/12/26 17:55:57;;;;;;;;;5.75;3.00;;;;;8.49;100.00;102173.75;4913290;28;49864;-67
2022/12/26 17:58:23;;;;;;;;;6.00;4.00;;;;;9.00;100.00;102264.56;4911913;28;49849;-68
2022/12/26 18:00:49;;;;;;;;;0.75;0.50;;;;;8.29;100.00;102178.81;4917822;28;50950;-67
2022/12/26 18:03:14;;;;;;;;;3.00;3.00;;;;;8.45;100.00;102179.66;4914686;28;51643;-68
2022/12/26 18:05:40;;;;;;;;;3.75;3.75;;;;;8.43;100.00;102189.16;4912648;28;49766;-68
2022/12/26 18:08:06;;;;;;;;;3.25;3.25;;;;;8.91;100.00;102274.56;4909975;28;49833;-69
2022/12/26 18:10:34;;;;;;;;;3.00;3.00;;;;;8.42;100.00;102198.72;4921899;28;49943;-69
2022/12/26 18:13:00;;;;;;;;;3.00;3.00;;;;;8.50;100.00;102228.81;4923701;28;51084;-69
2022/12/26 18:15:28;;;;;;;;;9.25;7.00;;;;;8.87;100.00;102283.06;4921276;28;49707;-68
2022/12/26 18:17:54;;;;;;;;;5.75;5.75;;;;;8.06;100.00;102178.44;4921346;28;49805;-68
2022/12/26 18:20:26;;;;;;;;;6.50;4.00;;;;;8.83;100.00;102299.47;4917264;28;49636;-69
2022/12/26 18:22:52;;;;;;;;;5.25;5.25;;;;;8.82;100.00;102305.53;4913909;28;49740;-69
2022/12/26 18:25:20;;;;;;;;;4.00;4.00;;;;;8.80;100.00;102305.44;4913333;28;49847;-68
2022/12/26 18:27:46;;;;;;;;;4.50;4.50;;;;;8.56;100.00;102270.09;4917445;28;49761;-68
2022/12/26 18:30:17;;;;;;;;;5.00;5.00;;;;;8.69;100.00;102298.75;4918105;28;49930;-68
2022/12/26 18:32:44;;;;;;;;;6.50;6.00;;;;;8.76;100.00;102315.66;4912987;28;50783;-66
2022/12/26 18:35:11;;;;;;;;;7.75;7.75;;;;;8.37;100.00;102252.53;4922588;28;49889;-70
2022/12/26 18:37:37;;;;;;;;;7.00;7.00;;;;;8.02;100.00;102195.69;4918988;28;49729;-68
2022/12/26 18:40:06;;;;;;;;;8.75;7.25;;;;;8.39;100.00;102263.06;4913086;28;49751;-66
2022/12/26 18:42:34;;;;;;;;;8.75;8.75;;;;;8.57;100.00;102295.44;4912855;28;50776;-66
2022/12/26 18:44:59;;;;;;;;;7.50;6.50;;;;;8.54;100.00;102298.81;4919053;28;49783;-65
2022/12/26 18:47:25;;;;;;;;;7.50;7.50;;;;;8.47;100.00;102290.56;4915184;28;49833;-67
2022/12/26 18:49:50;;;;;;;;;8.50;7.00;;;;;8.36;100.00;102302.16;4921232;28;49534;-71
2022/12/26 18:52:16;;;;;;;;;5.75;5.50;;;;;8.56;100.00;102320.72;4919565;28;51101;-76
2022/12/26 18:54:41;;;;;;;;;7.00;6.50;;;;;8.56;100.00;102340.78;4917152;28;49676;-74
2022/12/26 18:57:14;;;;;;;;;8.25;7.25;;;;;8.27;100.00;102299.91;4913799;28;49670;-75
2022/12/26 18:59:40;;;;;;;;;7.00;7.00;;;;;7.72;100.00;102221.03;4912930;28;49831;-83
2022/12/26 19:02:15;;;;;;;;;7.75;6.75;;;;;7.66;100.00;102226.81;4915642;28;49708;-72
2022/12/26 19:04:40;;;;;;;;;9.50;8.00;;;;;8.35;100.00;102318.69;4911927;28;49712;-73
2022/12/26 19:07:06;;;;;;;;;9.25;7.25;;;;;8.16;100.00;102294.09;4913877;28;49757;-77
2022/12/26 19:09:31;;;;;;;;;11.00;8.25;;;;;7.30;100.00;102164.66;4912267;28;50087;-80
2022/12/26 19:11:57;;;;;;;;;6.75;6.25;;;;;7.53;100.00;102189.44;4918952;28;50704;-69
2022/12/26 19:14:23;;;;;;;;;10.75;7.50;;;;;8.35;100.00;102330.03;4917239;28;49870;-73
2022/12/26 19:16:48;;;;;;;;;10.25;8.00;;;;;7.38;100.00;102197.34;4911176;28;49866;-76
2022/12/26 19:19:13;;;;;;;;;7.75;7.75;;;;;7.17;100.00;102156.16;4912663;28;49596;-74
2022/12/26 19:21:39;;;;;;;;;12.50;7.00;;;;;7.21;100.00;102175.50;4912329;28;49982;-78
2022/12/26 19:24:04;;;;;;;;;7.50;7.50;;;;;8.17;100.00;102322.03;4912783;28;49977;-73
2022/12/26 19:26:30;;;;;;;;;8.75;8.75;;;;;8.29;100.00;102342.75;4904958;28;49826;-73
2022/12/26 19:28:55;;;;;;;;;10.25;7.75;;;;;8.35;100.00;102386.72;4914675;28;49949;-71
2022/12/26 19:31:22;;;;;;;;;8.75;8.00;;;;;7.96;100.00;102294.72;4913592;28;51097;-69
2022/12/26 19:33:47;;;;;;;;;6.00;6.00;;;;;8.24;100.00;102345.13;4914134;28;49820;-71
2022/12/26 19:36:13;;;;;;;;;9.00;9.00;;;;;8.30;100.00;102358.56;4918276;28;49768;-69
2022/12/26 19:38:39;;;;;;;;;8.50;8.00;;;;;8.28;100.00;102369.72;4915089;28;49764;-71
2022/12/26 19:41:06;;;;;;;;;8.75;7.50;;;;;8.29;100.00;102358.44;4915342;28;50314;-78
2022/12/26 19:43:35;;;;;;;;;11.25;9.00;;;;;8.28;100.00;102368.00;4920626;28;49776;-73
2022/12/26 19:46:04;;;;;;;;;11.00;11.00;;;;;7.99;100.00;102318.41;4919147;28;49959;-71
2022/12/26 19:48:32;;;;;;;;;7.25;7.25;;;;;7.82;100.00;102295.66;4914527;28;50171;-67
2022/12/26 19:51:06;;;;;;;;;10.00;7.75;;;;;8.24;100.00;102379.13;4915393;28;49696;-67